Quebec, Canada
Current Conditions -  °F | °C
As of 3:00 AM on Sunday 26 Oct 2014 (Local Time) from CYQB Reporting Station
Drizzle Drizzle  
Wind Chill: 36°   Ceiling: 1700
Heat Index: 41°   Visibility: 15mi
Dew Point: 39°   Wind: 8mph
Humidity: 93%   Direction: 70°ENE
Pressure: 29.36"   Gusts: NA
Location:  46.81°N, 71.22°W
Report Text: CYQB 260700Z 07007KT 15SM -DZ SCT008 BKN017 05/04 A2936 RMK ST3SC4 SLP944
Loading
Personal Weather Stations






























Interactive Weather Map New forecast layout! Learn more

10-Day Weather Forecast

Advertisements
Track Severe Weather on mobile